sensor_id;sensor_type;location;lat;lon;timestamp;P1;durP1;ratioP1;P2;durP2;ratioP2
29358;SDS011;16347;53.232;6.556;2023-11-21T00:00:03;29.15;;;5.30;;
29358;SDS011;16347;53.232;6.556;2023-11-21T00:02:40;27.88;;;4.85;;
29358;SDS011;16347;53.232;6.556;2023-11-21T00:05:08;18.85;;;4.28;;
29358;SDS011;16347;53.232;6.556;2023-11-21T00:07:37;21.15;;;4.72;;
29358;SDS011;16347;53.232;6.556;2023-11-21T00:10:06;32.50;;;5.30;;
29358;SDS011;16347;53.232;6.556;2023-11-21T00:12:34;22.80;;;5.13;;
29358;SDS011;16347;53.232;6.556;2023-11-21T00:15:03;25.13;;;4.82;;
29358;SDS011;16347;53.232;6.556;2023-11-21T00:17:32;28.65;;;5.10;;
29358;SDS011;16347;53.232;6.556;2023-11-21T00:20:01;30.55;;;5.10;;
29358;SDS011;16347;53.232;6.556;2023-11-21T00:22:32;26.35;;;5.43;;
29358;SDS011;16347;53.232;6.556;2023-11-21T00:25:01;25.58;;;5.63;;
29358;SDS011;16347;53.232;6.556;2023-11-21T00:27:30;27.35;;;5.38;;
29358;SDS011;16347;53.232;6.556;2023-11-21T00:29:58;32.85;;;5.40;;
29358;SDS011;16347;53.232;6.556;2023-11-21T00:32:25;20.85;;;5.30;;
29358;SDS011;16347;53.232;6.556;2023-11-21T00:34:53;30.08;;;5.97;;
29358;SDS011;16347;53.232;6.556;2023-11-21T00:37:23;27.35;;;5.63;;
29358;SDS011;16347;53.232;6.556;2023-11-21T00:39:51;25.05;;;5.75;;
29358;SDS011;16347;53.232;6.556;2023-11-21T00:42:19;23.50;;;5.32;;
29358;SDS011;16347;53.232;6.556;2023-11-21T00:44:48;28.95;;;6.22;;
29358;SDS011;16347;53.232;6.556;2023-11-21T00:47:15;24.00;;;5.25;;
29358;SDS011;16347;53.232;6.556;2023-11-21T00:49:44;28.23;;;5.90;;
29358;SDS011;16347;53.232;6.556;2023-11-21T00:52:11;28.23;;;6.45;;
29358;SDS011;16347;53.232;6.556;2023-11-21T00:54:41;34.22;;;6.03;;
29358;SDS011;16347;53.232;6.556;2023-11-21T00:57:09;28.67;;;6.22;;
29358;SDS011;16347;53.232;6.556;2023-11-21T00:59:38;27.73;;;5.80;;
29358;SDS011;16347;53.232;6.556;2023-11-21T01:02:06;27.58;;;5.97;;
29358;SDS011;16347;53.232;6.556;2023-11-21T01:04:37;34.58;;;6.30;;
29358;SDS011;16347;53.232;6.556;2023-11-21T01:07:05;31.20;;;6.68;;
29358;SDS011;16347;53.232;6.556;2023-11-21T01:09:33;28.00;;;6.22;;
29358;SDS011;16347;53.232;6.556;2023-11-21T01:12:02;32.05;;;6.72;;
29358;SDS011;16347;53.232;6.556;2023-11-21T01:14:31;23.63;;;6.18;;
29358;SDS011;16347;53.232;6.556;2023-11-21T01:16:58;32.85;;;6.97;;
29358;SDS011;16347;53.232;6.556;2023-11-21T01:19:26;30.33;;;6.97;;
29358;SDS011;16347;53.232;6.556;2023-11-21T01:21:56;33.63;;;6.90;;
29358;SDS011;16347;53.232;6.556;2023-11-21T01:24:24;38.97;;;7.47;;
29358;SDS011;16347;53.232;6.556;2023-11-21T01:26:52;38.22;;;7.75;;
29358;SDS011;16347;53.232;6.556;2023-11-21T01:29:21;34.60;;;7.60;;
29358;SDS011;16347;53.232;6.556;2023-11-21T01:31:49;32.08;;;8.00;;
29358;SDS011;16347;53.232;6.556;2023-11-21T01:34:18;34.13;;;7.65;;
29358;SDS011;16347;53.232;6.556;2023-11-21T01:36:47;40.60;;;8.20;;
29358;SDS011;16347;53.232;6.556;2023-11-21T01:39:15;42.88;;;8.40;;
29358;SDS011;16347;53.232;6.556;2023-11-21T01:41:50;37.60;;;9.15;;
29358;SDS011;16347;53.232;6.556;2023-11-21T01:44:18;27.63;;;7.75;;
29358;SDS011;16347;53.232;6.556;2023-11-21T01:46:48;45.75;;;9.15;;
29358;SDS011;16347;53.232;6.556;2023-11-21T01:49:16;24.95;;;8.18;;
29358;SDS011;16347;53.232;6.556;2023-11-21T01:51:45;27.45;;;8.68;;
29358;SDS011;16347;53.232;6.556;2023-11-21T01:54:16;28.83;;;8.63;;
29358;SDS011;16347;53.232;6.556;2023-11-21T01:56:45;33.78;;;8.55;;
29358;SDS011;16347;53.232;6.556;2023-11-21T01:59:14;40.13;;;9.00;;
29358;SDS011;16347;53.232;6.556;2023-11-21T02:01:45;33.10;;;9.38;;
29358;SDS011;16347;53.232;6.556;2023-11-21T02:04:18;37.10;;;8.40;;
29358;SDS011;16347;53.232;6.556;2023-11-21T02:06:46;38.05;;;8.98;;
29358;SDS011;16347;53.232;6.556;2023-11-21T02:09:14;32.03;;;8.93;;
29358;SDS011;16347;53.232;6.556;2023-11-21T02:11:42;33.42;;;10.00;;
29358;SDS011;16347;53.232;6.556;2023-11-21T02:14:10;35.92;;;8.35;;
29358;SDS011;16347;53.232;6.556;2023-11-21T02:16:40;33.78;;;9.52;;
29358;SDS011;16347;53.232;6.556;2023-11-21T02:19:15;34.67;;;9.95;;
29358;SDS011;16347;53.232;6.556;2023-11-21T02:21:46;35.45;;;9.35;;
29358;SDS011;16347;53.232;6.556;2023-11-21T02:24:17;39.45;;;8.77;;
29358;SDS011;16347;53.232;6.556;2023-11-21T02:26:46;32.05;;;9.27;;
29358;SDS011;16347;53.232;6.556;2023-11-21T02:29:14;28.23;;;8.48;;
29358;SDS011;16347;53.232;6.556;2023-11-21T02:31:45;42.30;;;9.75;;
29358;SDS011;16347;53.232;6.556;2023-11-21T02:34:15;30.52;;;8.93;;
29358;SDS011;16347;53.232;6.556;2023-11-21T02:36:43;33.67;;;9.13;;
29358;SDS011;16347;53.232;6.556;2023-11-21T02:39:11;41.30;;;9.55;;
29358;SDS011;16347;53.232;6.556;2023-11-21T02:41:41;31.42;;;8.45;;
29358;SDS011;16347;53.232;6.556;2023-11-21T02:44:10;33.50;;;8.55;;
29358;SDS011;16347;53.232;6.556;2023-11-21T02:46:38;37.95;;;9.73;;
29358;SDS011;16347;53.232;6.556;2023-11-21T02:49:06;31.25;;;8.90;;
29358;SDS011;16347;53.232;6.556;2023-11-21T02:51:36;25.45;;;9.02;;
29358;SDS011;16347;53.232;6.556;2023-11-21T02:54:05;31.83;;;9.23;;
29358;SDS011;16347;53.232;6.556;2023-11-21T02:56:34;30.20;;;8.98;;
29358;SDS011;16347;53.232;6.556;2023-11-21T02:59:04;30.42;;;9.02;;
29358;SDS011;16347;53.232;6.556;2023-11-21T03:01:31;34.70;;;8.65;;
29358;SDS011;16347;53.232;6.556;2023-11-21T03:04:00;27.00;;;8.63;;
29358;SDS011;16347;53.232;6.556;2023-11-21T03:06:28;24.13;;;9.32;;
29358;SDS011;16347;53.232;6.556;2023-11-21T03:08:56;35.92;;;10.07;;
29358;SDS011;16347;53.232;6.556;2023-11-21T03:11:24;31.48;;;10.02;;
29358;SDS011;16347;53.232;6.556;2023-11-21T03:14:11;35.70;;;10.57;;
29358;SDS011;16347;53.232;6.556;2023-11-21T03:16:38;35.80;;;10.02;;
29358;SDS011;16347;53.232;6.556;2023-11-21T03:19:07;38.92;;;10.80;;
29358;SDS011;16347;53.232;6.556;2023-11-21T03:21:35;39.17;;;9.90;;
29358;SDS011;16347;53.232;6.556;2023-11-21T03:24:03;34.20;;;9.88;;
29358;SDS011;16347;53.232;6.556;2023-11-21T03:26:32;33.70;;;9.80;;
29358;SDS011;16347;53.232;6.556;2023-11-21T03:29:00;44.95;;;11.70;;
29358;SDS011;16347;53.232;6.556;2023-11-21T03:31:29;51.65;;;11.77;;
29358;SDS011;16347;53.232;6.556;2023-11-21T03:33:58;42.15;;;10.43;;
29358;SDS011;16347;53.232;6.556;2023-11-21T03:36:25;43.20;;;10.88;;
29358;SDS011;16347;53.232;6.556;2023-11-21T03:38:53;31.67;;;8.80;;
29358;SDS011;16347;53.232;6.556;2023-11-21T03:41:21;39.88;;;10.25;;
29358;SDS011;16347;53.232;6.556;2023-11-21T03:43:49;27.77;;;10.60;;
29358;SDS011;16347;53.232;6.556;2023-11-21T03:46:17;27.40;;;9.07;;
29358;SDS011;16347;53.232;6.556;2023-11-21T03:48:46;35.45;;;9.57;;
29358;SDS011;16347;53.232;6.556;2023-11-21T03:51:14;34.28;;;8.90;;
29358;SDS011;16347;53.232;6.556;2023-11-21T03:53:42;24.60;;;9.25;;
29358;SDS011;16347;53.232;6.556;2023-11-21T03:56:10;29.10;;;8.80;;
29358;SDS011;16347;53.232;6.556;2023-11-21T03:58:38;28.55;;;9.02;;
29358;SDS011;16347;53.232;6.556;2023-11-21T04:01:06;32.28;;;10.02;;
29358;SDS011;16347;53.232;6.556;2023-11-21T04:03:34;29.70;;;9.38;;
29358;SDS011;16347;53.232;6.556;2023-11-21T04:06:04;32.10;;;9.98;;
29358;SDS011;16347;53.232;6.556;2023-11-21T04:08:32;30.27;;;8.60;;
29358;SDS011;16347;53.232;6.556;2023-11-21T04:11:00;29.27;;;9.23;;
29358;SDS011;16347;53.232;6.556;2023-11-21T04:13:28;35.03;;;10.98;;
29358;SDS011;16347;53.232;6.556;2023-11-21T04:15:57;33.95;;;10.20;;
29358;SDS011;16347;53.232;6.556;2023-11-21T04:18:25;36.05;;;11.73;;
29358;SDS011;16347;53.232;6.556;2023-11-21T04:20:52;33.78;;;11.32;;
29358;SDS011;16347;53.232;6.556;2023-11-21T04:23:22;32.40;;;10.32;;
29358;SDS011;16347;53.232;6.556;2023-11-21T04:25:49;44.15;;;10.80;;
29358;SDS011;16347;53.232;6.556;2023-11-21T04:28:18;27.50;;;10.05;;
29358;SDS011;16347;53.232;6.556;2023-11-21T04:30:47;34.42;;;10.73;;
29358;SDS011;16347;53.232;6.556;2023-11-21T04:33:14;31.13;;;10.45;;
29358;SDS011;16347;53.232;6.556;2023-11-21T04:35:42;33.72;;;10.98;;
29358;SDS011;16347;53.232;6.556;2023-11-21T04:38:10;24.02;;;9.88;;
29358;SDS011;16347;53.232;6.556;2023-11-21T04:40:39;29.55;;;10.10;;
29358;SDS011;16347;53.232;6.556;2023-11-21T04:43:07;28.20;;;9.90;;
29358;SDS011;16347;53.232;6.556;2023-11-21T04:45:35;33.45;;;11.70;;
29358;SDS011;16347;53.232;6.556;2023-11-21T04:48:03;34.13;;;10.50;;
29358;SDS011;16347;53.232;6.556;2023-11-21T04:50:33;39.67;;;11.85;;
29358;SDS011;16347;53.232;6.556;2023-11-21T04:53:00;32.45;;;10.63;;
29358;SDS011;16347;53.232;6.556;2023-11-21T04:55:28;35.97;;;10.02;;
29358;SDS011;16347;53.232;6.556;2023-11-21T04:57:58;30.70;;;10.00;;
29358;SDS011;16347;53.232;6.556;2023-11-21T05:00:25;30.73;;;10.38;;
29358;SDS011;16347;53.232;6.556;2023-11-21T05:02:53;38.17;;;10.82;;
29358;SDS011;16347;53.232;6.556;2023-11-21T05:05:21;33.75;;;10.98;;
29358;SDS011;16347;53.232;6.556;2023-11-21T05:07:50;41.83;;;11.38;;
29358;SDS011;16347;53.232;6.556;2023-11-21T05:10:19;37.35;;;10.45;;
29358;SDS011;16347;53.232;6.556;2023-11-21T05:12:49;24.02;;;9.85;;
29358;SDS011;16347;53.232;6.556;2023-11-21T05:15:18;30.95;;;9.52;;
29358;SDS011;16347;53.232;6.556;2023-11-21T05:17:47;22.60;;;9.65;;
29358;SDS011;16347;53.232;6.556;2023-11-21T05:20:16;30.08;;;9.18;;
29358;SDS011;16347;53.232;6.556;2023-11-21T05:22:47;27.33;;;8.95;;
29358;SDS011;16347;53.232;6.556;2023-11-21T05:25:15;24.65;;;9.00;;
29358;SDS011;16347;53.232;6.556;2023-11-21T05:27:44;25.75;;;10.02;;
29358;SDS011;16347;53.232;6.556;2023-11-21T05:30:13;20.05;;;9.45;;
29358;SDS011;16347;53.232;6.556;2023-11-21T05:32:42;24.05;;;8.55;;
29358;SDS011;16347;53.232;6.556;2023-11-21T05:35:10;23.48;;;9.52;;
29358;SDS011;16347;53.232;6.556;2023-11-21T05:37:42;21.67;;;10.52;;
29358;SDS011;16347;53.232;6.556;2023-11-21T05:40:10;23.88;;;9.82;;
29358;SDS011;16347;53.232;6.556;2023-11-21T05:42:39;28.73;;;10.90;;
29358;SDS011;16347;53.232;6.556;2023-11-21T05:45:08;25.08;;;11.30;;
29358;SDS011;16347;53.232;6.556;2023-11-21T05:47:37;30.45;;;11.55;;
29358;SDS011;16347;53.232;6.556;2023-11-21T05:50:08;30.65;;;11.23;;
29358;SDS011;16347;53.232;6.556;2023-11-21T05:52:39;30.77;;;12.32;;
29358;SDS011;16347;53.232;6.556;2023-11-21T05:55:07;34.25;;;13.40;;
29358;SDS011;16347;53.232;6.556;2023-11-21T05:57:36;25.85;;;12.65;;
29358;SDS011;16347;53.232;6.556;2023-11-21T06:00:05;32.05;;;13.45;;
29358;SDS011;16347;53.232;6.556;2023-11-21T06:02:39;28.58;;;12.43;;
29358;SDS011;16347;53.232;6.556;2023-11-21T06:05:09;32.00;;;14.55;;
29358;SDS011;16347;53.232;6.556;2023-11-21T06:07:37;34.78;;;15.27;;
29358;SDS011;16347;53.232;6.556;2023-11-21T06:10:07;35.83;;;15.40;;
29358;SDS011;16347;53.232;6.556;2023-11-21T06:12:37;28.25;;;14.48;;
29358;SDS011;16347;53.232;6.556;2023-11-21T06:15:07;32.88;;;15.48;;
29358;SDS011;16347;53.232;6.556;2023-11-21T06:17:36;33.30;;;16.52;;
29358;SDS011;16347;53.232;6.556;2023-11-21T06:20:05;35.70;;;16.55;;
29358;SDS011;16347;53.232;6.556;2023-11-21T06:22:37;31.48;;;14.40;;
29358;SDS011;16347;53.232;6.556;2023-11-21T06:25:07;31.75;;;14.15;;
29358;SDS011;16347;53.232;6.556;2023-11-21T06:27:36;35.30;;;14.15;;
29358;SDS011;16347;53.232;6.556;2023-11-21T06:30:05;31.33;;;13.88;;
29358;SDS011;16347;53.232;6.556;2023-11-21T06:32:35;30.00;;;14.00;;
29358;SDS011;16347;53.232;6.556;2023-11-21T06:35:04;29.73;;;13.32;;
29358;SDS011;16347;53.232;6.556;2023-11-21T06:37:33;27.85;;;13.20;;
29358;SDS011;16347;53.232;6.556;2023-11-21T06:40:03;23.55;;;11.32;;
29358;SDS011;16347;53.232;6.556;2023-11-21T06:42:32;24.90;;;12.30;;
29358;SDS011;16347;53.232;6.556;2023-11-21T06:45:00;22.40;;;11.63;;
29358;SDS011;16347;53.232;6.556;2023-11-21T06:47:30;21.70;;;10.93;;
29358;SDS011;16347;53.232;6.556;2023-11-21T06:49:58;27.38;;;13.30;;
29358;SDS011;16347;53.232;6.556;2023-11-21T06:52:27;25.67;;;13.52;;
29358;SDS011;16347;53.232;6.556;2023-11-21T06:54:56;27.38;;;14.18;;
29358;SDS011;16347;53.232;6.556;2023-11-21T06:57:25;26.42;;;13.25;;
29358;SDS011;16347;53.232;6.556;2023-11-21T06:59:53;29.30;;;14.68;;
29358;SDS011;16347;53.232;6.556;2023-11-21T07:02:23;24.63;;;13.65;;
29358;SDS011;16347;53.232;6.556;2023-11-21T07:04:51;30.00;;;15.57;;
29358;SDS011;16347;53.232;6.556;2023-11-21T07:07:20;29.77;;;15.25;;
29358;SDS011;16347;53.232;6.556;2023-11-21T07:09:49;34.47;;;17.23;;
29358;SDS011;16347;53.232;6.556;2023-11-21T07:12:18;32.33;;;17.30;;
29358;SDS011;16347;53.232;6.556;2023-11-21T07:14:47;35.10;;;17.38;;
29358;SDS011;16347;53.232;6.556;2023-11-21T07:17:15;37.30;;;19.08;;
29358;SDS011;16347;53.232;6.556;2023-11-21T07:19:43;47.55;;;20.58;;
29358;SDS011;16347;53.232;6.556;2023-11-21T07:22:11;37.55;;;18.83;;
29358;SDS011;16347;53.232;6.556;2023-11-21T07:24:43;42.13;;;18.90;;
29358;SDS011;16347;53.232;6.556;2023-11-21T07:27:11;36.50;;;18.65;;
29358;SDS011;16347;53.232;6.556;2023-11-21T07:29:39;31.48;;;16.80;;
29358;SDS011;16347;53.232;6.556;2023-11-21T07:32:08;32.70;;;16.75;;
29358;SDS011;16347;53.232;6.556;2023-11-21T07:34:36;31.77;;;17.25;;
29358;SDS011;16347;53.232;6.556;2023-11-21T07:37:04;30.55;;;16.98;;
29358;SDS011;16347;53.232;6.556;2023-11-21T07:39:32;32.92;;;15.35;;
29358;SDS011;16347;53.232;6.556;2023-11-21T07:42:00;30.52;;;17.08;;
29358;SDS011;16347;53.232;6.556;2023-11-21T07:44:28;33.78;;;15.60;;
29358;SDS011;16347;53.232;6.556;2023-11-21T07:46:56;29.67;;;15.82;;
29358;SDS011;16347;53.232;6.556;2023-11-21T07:49:26;34.90;;;17.83;;
29358;SDS011;16347;53.232;6.556;2023-11-21T07:51:54;28.02;;;15.88;;
29358;SDS011;16347;53.232;6.556;2023-11-21T07:54:21;29.08;;;16.27;;
29358;SDS011;16347;53.232;6.556;2023-11-21T07:56:49;28.98;;;16.83;;
29358;SDS011;16347;53.232;6.556;2023-11-21T07:59:17;28.85;;;16.52;;
29358;SDS011;16347;53.232;6.556;2023-11-21T08:01:45;32.08;;;17.45;;
29358;SDS011;16347;53.232;6.556;2023-11-21T08:04:13;31.13;;;16.15;;
29358;SDS011;16347;53.232;6.556;2023-11-21T08:06:42;28.92;;;17.08;;
29358;SDS011;16347;53.232;6.556;2023-11-21T08:09:10;37.17;;;19.70;;
29358;SDS011;16347;53.232;6.556;2023-11-21T08:11:38;35.17;;;18.67;;
29358;SDS011;16347;53.232;6.556;2023-11-21T08:14:06;37.28;;;18.23;;
29358;SDS011;16347;53.232;6.556;2023-11-21T08:16:34;35.60;;;18.92;;
29358;SDS011;16347;53.232;6.556;2023-11-21T08:19:02;29.77;;;17.58;;
29358;SDS011;16347;53.232;6.556;2023-11-21T08:21:30;36.50;;;18.65;;
29358;SDS011;16347;53.232;6.556;2023-11-21T08:23:59;33.35;;;18.73;;
29358;SDS011;16347;53.232;6.556;2023-11-21T08:26:28;34.65;;;17.83;;
29358;SDS011;16347;53.232;6.556;2023-11-21T08:28:56;32.38;;;17.77;;
29358;SDS011;16347;53.232;6.556;2023-11-21T08:31:24;32.40;;;18.35;;
29358;SDS011;16347;53.232;6.556;2023-11-21T08:33:53;31.05;;;16.98;;
29358;SDS011;16347;53.232;6.556;2023-11-21T08:36:22;28.20;;;16.77;;
29358;SDS011;16347;53.232;6.556;2023-11-21T08:38:50;28.90;;;16.23;;
29358;SDS011;16347;53.232;6.556;2023-11-21T08:41:20;29.58;;;15.68;;
29358;SDS011;16347;53.232;6.556;2023-11-21T08:43:49;31.15;;;15.77;;
29358;SDS011;16347;53.232;6.556;2023-11-21T08:46:17;23.25;;;15.27;;
29358;SDS011;16347;53.232;6.556;2023-11-21T08:48:46;27.92;;;15.68;;
29358;SDS011;16347;53.232;6.556;2023-11-21T08:51:15;27.17;;;15.65;;
29358;SDS011;16347;53.232;6.556;2023-11-21T08:53:43;23.23;;;14.52;;
29358;SDS011;16347;53.232;6.556;2023-11-21T08:56:12;27.27;;;14.77;;
29358;SDS011;16347;53.232;6.556;2023-11-21T08:58:41;21.25;;;12.70;;
29358;SDS011;16347;53.232;6.556;2023-11-21T09:01:09;21.00;;;13.40;;
29358;SDS011;16347;53.232;6.556;2023-11-21T09:03:38;19.80;;;12.45;;
29358;SDS011;16347;53.232;6.556;2023-11-21T09:06:07;18.70;;;11.57;;
29358;SDS011;16347;53.232;6.556;2023-11-21T09:08:36;19.95;;;10.38;;
29358;SDS011;16347;53.232;6.556;2023-11-21T09:11:04;19.38;;;11.95;;
29358;SDS011;16347;53.232;6.556;2023-11-21T09:13:34;17.13;;;11.02;;
29358;SDS011;16347;53.232;6.556;2023-11-21T09:16:04;17.98;;;11.48;;
29358;SDS011;16347;53.232;6.556;2023-11-21T09:18:33;17.83;;;11.73;;
29358;SDS011;16347;53.232;6.556;2023-11-21T09:21:01;26.40;;;11.15;;
29358;SDS011;16347;53.232;6.556;2023-11-21T09:23:28;18.88;;;11.90;;
29358;SDS011;16347;53.232;6.556;2023-11-21T09:25:56;19.02;;;12.23;;
29358;SDS011;16347;53.232;6.556;2023-11-21T09:28:26;19.90;;;11.43;;
29358;SDS011;16347;53.232;6.556;2023-11-21T09:30:54;15.48;;;10.18;;
29358;SDS011;16347;53.232;6.556;2023-11-21T09:33:23;20.20;;;10.38;;
29358;SDS011;16347;53.232;6.556;2023-11-21T09:35:52;16.77;;;10.45;;
29358;SDS011;16347;53.232;6.556;2023-11-21T09:38:20;18.42;;;10.63;;
29358;SDS011;16347;53.232;6.556;2023-11-21T09:40:48;16.40;;;10.55;;
29358;SDS011;16347;53.232;6.556;2023-11-21T09:43:18;23.52;;;9.75;;
29358;SDS011;16347;53.232;6.556;2023-11-21T09:45:46;15.23;;;9.45;;
29358;SDS011;16347;53.232;6.556;2023-11-21T09:48:16;18.73;;;10.07;;
29358;SDS011;16347;53.232;6.556;2023-11-21T09:50:47;16.08;;;9.45;;
29358;SDS011;16347;53.232;6.556;2023-11-21T09:53:20;17.00;;;9.05;;
29358;SDS011;16347;53.232;6.556;2023-11-21T09:55:51;14.90;;;9.07;;
29358;SDS011;16347;53.232;6.556;2023-11-21T09:58:20;17.02;;;9.18;;
29358;SDS011;16347;53.232;6.556;2023-11-21T10:00:52;14.68;;;8.40;;
29358;SDS011;16347;53.232;6.556;2023-11-21T10:03:23;13.82;;;7.72;;
29358;SDS011;16347;53.232;6.556;2023-11-21T10:05:53;17.25;;;7.97;;
29358;SDS011;16347;53.232;6.556;2023-11-21T10:08:22;12.57;;;7.80;;
29358;SDS011;16347;53.232;6.556;2023-11-21T10:11:01;14.18;;;8.13;;
29358;SDS011;16347;53.232;6.556;2023-11-21T10:13:33;16.17;;;8.18;;
29358;SDS011;16347;53.232;6.556;2023-11-21T10:16:01;14.35;;;8.05;;
29358;SDS011;16347;53.232;6.556;2023-11-21T10:18:32;14.68;;;8.70;;
29358;SDS011;16347;53.232;6.556;2023-11-21T10:21:02;13.38;;;7.72;;
29358;SDS011;16347;53.232;6.556;2023-11-21T10:23:32;14.75;;;7.55;;
29358;SDS011;16347;53.232;6.556;2023-11-21T10:26:00;12.75;;;7.20;;
29358;SDS011;16347;53.232;6.556;2023-11-21T10:28:40;15.13;;;8.13;;
29358;SDS011;16347;53.232;6.556;2023-11-21T10:31:08;14.38;;;7.47;;
29358;SDS011;16347;53.232;6.556;2023-11-21T10:33:36;13.63;;;7.80;;
29358;SDS011;16347;53.232;6.556;2023-11-21T10:36:07;14.43;;;7.50;;
29358;SDS011;16347;53.232;6.556;2023-11-21T10:38:41;10.77;;;6.95;;
29358;SDS011;16347;53.232;6.556;2023-11-21T10:41:12;14.10;;;8.15;;
29358;SDS011;16347;53.232;6.556;2023-11-21T10:43:42;14.32;;;7.47;;
29358;SDS011;16347;53.232;6.556;2023-11-21T10:46:10;13.15;;;7.38;;
29358;SDS011;16347;53.232;6.556;2023-11-21T10:48:39;12.65;;;7.10;;
29358;SDS011;16347;53.232;6.556;2023-11-21T10:51:10;11.27;;;6.78;;
29358;SDS011;16347;53.232;6.556;2023-11-21T10:53:38;14.68;;;7.57;;
29358;SDS011;16347;53.232;6.556;2023-11-21T10:56:13;16.88;;;7.68;;
29358;SDS011;16347;53.232;6.556;2023-11-21T10:58:44;11.98;;;7.82;;
29358;SDS011;16347;53.232;6.556;2023-11-21T11:01:13;10.85;;;6.55;;
29358;SDS011;16347;53.232;6.556;2023-11-21T11:03:45;10.63;;;6.30;;
29358;SDS011;16347;53.232;6.556;2023-11-21T11:06:15;13.05;;;6.97;;
29358;SDS011;16347;53.232;6.556;2023-11-21T11:08:44;10.48;;;6.85;;
29358;SDS011;16347;53.232;6.556;2023-11-21T11:11:12;13.88;;;7.18;;
29358;SDS011;16347;53.232;6.556;2023-11-21T11:13:43;10.70;;;6.65;;
29358;SDS011;16347;53.232;6.556;2023-11-21T11:16:12;15.63;;;6.65;;
29358;SDS011;16347;53.232;6.556;2023-11-21T11:18:44;10.43;;;6.20;;
29358;SDS011;16347;53.232;6.556;2023-11-21T11:21:20;13.90;;;7.43;;
29358;SDS011;16347;53.232;6.556;2023-11-21T11:24:01;13.82;;;6.90;;
29358;SDS011;16347;53.232;6.556;2023-11-21T11:26:42;11.60;;;6.50;;
29358;SDS011;16347;53.232;6.556;2023-11-21T11:29:23;15.35;;;6.75;;
29358;SDS011;16347;53.232;6.556;2023-11-21T11:32:00;10.73;;;6.70;;
29358;SDS011;16347;53.232;6.556;2023-11-21T11:34:36;12.48;;;6.97;;
29358;SDS011;16347;53.232;6.556;2023-11-21T11:37:13;12.63;;;7.50;;
29358;SDS011;16347;53.232;6.556;2023-11-21T11:39:41;20.55;;;6.97;;
29358;SDS011;16347;53.232;6.556;2023-11-21T11:42:12;14.80;;;7.07;;
29358;SDS011;16347;53.232;6.556;2023-11-21T11:44:48;11.65;;;6.55;;
29358;SDS011;16347;53.232;6.556;2023-11-21T11:47:20;11.65;;;7.28;;
29358;SDS011;16347;53.232;6.556;2023-11-21T11:49:57;9.70;;;6.13;;
29358;SDS011;16347;53.232;6.556;2023-11-21T11:55:19;14.88;;;6.90;;
29358;SDS011;16347;53.232;6.556;2023-11-21T11:57:49;12.30;;;7.15;;
29358;SDS011;16347;53.232;6.556;2023-11-21T12:00:20;9.00;;;5.80;;
29358;SDS011;16347;53.232;6.556;2023-11-21T12:02:52;14.10;;;7.32;;
29358;SDS011;16347;53.232;6.556;2023-11-21T12:05:21;11.80;;;6.70;;
29358;SDS011;16347;53.232;6.556;2023-11-21T12:07:51;14.73;;;6.70;;
29358;SDS011;16347;53.232;6.556;2023-11-21T12:10:21;9.00;;;5.70;;
29358;SDS011;16347;53.232;6.556;2023-11-21T12:12:51;12.75;;;6.90;;
29358;SDS011;16347;53.232;6.556;2023-11-21T12:15:21;11.75;;;6.93;;
29358;SDS011;16347;53.232;6.556;2023-11-21T12:17:50;12.88;;;6.18;;
29358;SDS011;16347;53.232;6.556;2023-11-21T12:20:19;10.82;;;5.75;;
29358;SDS011;16347;53.232;6.556;2023-11-21T12:22:48;11.95;;;6.78;;
29358;SDS011;16347;53.232;6.556;2023-11-21T12:25:19;13.52;;;7.22;;
29358;SDS011;16347;53.232;6.556;2023-11-21T12:27:49;11.43;;;6.68;;
29358;SDS011;16347;53.232;6.556;2023-11-21T12:30:18;12.25;;;6.85;;
29358;SDS011;16347;53.232;6.556;2023-11-21T12:32:48;10.77;;;6.13;;
29358;SDS011;16347;53.232;6.556;2023-11-21T12:35:18;13.25;;;6.07;;
29358;SDS011;16347;53.232;6.556;2023-11-21T12:37:47;10.27;;;6.50;;
29358;SDS011;16347;53.232;6.556;2023-11-21T12:40:18;14.18;;;7.50;;
29358;SDS011;16347;53.232;6.556;2023-11-21T12:42:51;18.80;;;7.38;;
29358;SDS011;16347;53.232;6.556;2023-11-21T12:45:20;13.05;;;7.05;;
29358;SDS011;16347;53.232;6.556;2023-11-21T12:47:51;13.40;;;6.43;;
29358;SDS011;16347;53.232;6.556;2023-11-21T12:50:23;12.55;;;6.55;;
29358;SDS011;16347;53.232;6.556;2023-11-21T12:52:58;14.90;;;6.57;;
29358;SDS011;16347;53.232;6.556;2023-11-21T12:55:30;10.63;;;6.55;;
29358;SDS011;16347;53.232;6.556;2023-11-21T12:58:05;12.00;;;6.40;;
29358;SDS011;16347;53.232;6.556;2023-11-21T13:00:36;18.05;;;7.18;;
29358;SDS011;16347;53.232;6.556;2023-11-21T13:03:06;15.30;;;6.60;;
29358;SDS011;16347;53.232;6.556;2023-11-21T13:05:39;15.98;;;6.75;;
29358;SDS011;16347;53.232;6.556;2023-11-21T13:08:10;12.00;;;6.65;;
29358;SDS011;16347;53.232;6.556;2023-11-21T13:10:46;11.10;;;6.25;;
29358;SDS011;16347;53.232;6.556;2023-11-21T13:13:17;15.60;;;5.87;;
29358;SDS011;16347;53.232;6.556;2023-11-21T13:15:50;11.93;;;6.27;;
29358;SDS011;16347;53.232;6.556;2023-11-21T13:18:22;11.85;;;5.97;;
29358;SDS011;16347;53.232;6.556;2023-11-21T13:20:51;10.90;;;5.93;;
29358;SDS011;16347;53.232;6.556;2023-11-21T13:23:21;10.90;;;6.05;;
29358;SDS011;16347;53.232;6.556;2023-11-21T13:25:51;20.45;;;6.38;;
29358;SDS011;16347;53.232;6.556;2023-11-21T13:28:30;8.63;;;5.40;;
29358;SDS011;16347;53.232;6.556;2023-11-21T13:31:00;9.52;;;5.53;;
29358;SDS011;16347;53.232;6.556;2023-11-21T13:33:37;10.63;;;6.38;;
29358;SDS011;16347;53.232;6.556;2023-11-21T13:36:05;10.30;;;5.68;;
29358;SDS011;16347;53.232;6.556;2023-11-21T13:38:37;9.52;;;5.03;;
29358;SDS011;16347;53.232;6.556;2023-11-21T13:41:11;10.85;;;5.70;;
29358;SDS011;16347;53.232;6.556;2023-11-21T13:43:41;11.32;;;5.50;;
29358;SDS011;16347;53.232;6.556;2023-11-21T13:46:19;11.93;;;5.40;;
29358;SDS011;16347;53.232;6.556;2023-11-21T13:48:50;10.02;;;4.80;;
29358;SDS011;16347;53.232;6.556;2023-11-21T13:51:23;8.38;;;5.13;;
29358;SDS011;16347;53.232;6.556;2023-11-21T13:54:00;8.10;;;4.88;;
29358;SDS011;16347;53.232;6.556;2023-11-21T13:56:30;7.88;;;4.65;;
29358;SDS011;16347;53.232;6.556;2023-11-21T13:58:58;12.85;;;4.90;;
29358;SDS011;16347;53.232;6.556;2023-11-21T14:01:35;8.05;;;4.47;;
29358;SDS011;16347;53.232;6.556;2023-11-21T14:04:20;9.80;;;4.78;;
29358;SDS011;16347;53.232;6.556;2023-11-21T14:07:02;11.40;;;4.68;;
29358;SDS011;16347;53.232;6.556;2023-11-21T14:09:47;12.43;;;4.20;;
29358;SDS011;16347;53.232;6.556;2023-11-21T14:12:17;7.90;;;3.78;;
29358;SDS011;16347;53.232;6.556;2023-11-21T14:14:45;10.38;;;4.03;;
29358;SDS011;16347;53.232;6.556;2023-11-21T14:17:14;10.02;;;4.28;;
29358;SDS011;16347;53.232;6.556;2023-11-21T14:19:42;5.93;;;3.95;;
29358;SDS011;16347;53.232;6.556;2023-11-21T14:22:11;10.35;;;4.28;;
29358;SDS011;16347;53.232;6.556;2023-11-21T14:24:39;8.10;;;4.00;;
29358;SDS011;16347;53.232;6.556;2023-11-21T14:27:10;8.90;;;4.45;;
29358;SDS011;16347;53.232;6.556;2023-11-21T14:29:39;6.97;;;3.25;;
29358;SDS011;16347;53.232;6.556;2023-11-21T14:32:11;12.63;;;4.38;;
29358;SDS011;16347;53.232;6.556;2023-11-21T14:34:41;4.38;;;3.35;;
29358;SDS011;16347;53.232;6.556;2023-11-21T14:37:12;13.02;;;4.03;;
29358;SDS011;16347;53.232;6.556;2023-11-21T14:39:40;6.57;;;3.88;;
29358;SDS011;16347;53.232;6.556;2023-11-21T14:42:11;9.80;;;3.80;;
29358;SDS011;16347;53.232;6.556;2023-11-21T14:44:43;5.85;;;3.72;;
29358;SDS011;16347;53.232;6.556;2023-11-21T14:47:11;12.10;;;4.72;;